createdAt,value
2023-05-21T00:00:02.538Z,952.97
2023-05-21T00:00:13.549Z,952.97
2023-05-21T00:00:24.546Z,952.97
2023-05-21T00:00:35.552Z,952.97
2023-05-21T00:00:46.546Z,952.97
2023-05-21T00:00:57.553Z,952.98
2023-05-21T00:01:08.541Z,952.97
2023-05-21T00:01:19.526Z,952.97
2023-05-21T00:01:30.618Z,952.97
2023-05-21T00:01:42.580Z,952.98
2023-05-21T00:01:53.572Z,952.98
2023-05-21T00:02:04.577Z,952.98
2023-05-21T00:02:15.565Z,952.98
2023-05-21T00:02:26.574Z,952.98
2023-05-21T00:02:37.604Z,952.98
2023-05-21T00:02:49.631Z,952.98
2023-05-21T00:03:00.665Z,952.98
2023-05-21T00:03:11.610Z,952.97
2023-05-21T00:03:23.671Z,952.96
2023-05-21T00:03:34.625Z,952.95
2023-05-21T00:03:45.677Z,952.94
2023-05-21T00:03:56.633Z,952.93
2023-05-21T00:04:08.554Z,952.93
2023-05-21T00:04:19.539Z,952.94
2023-05-21T00:04:30.548Z,952.94
2023-05-21T00:04:41.545Z,952.95
2023-05-21T00:04:52.558Z,952.96
2023-05-21T00:05:03.546Z,952.95
2023-05-21T00:05:15.029Z,952.94
2023-05-21T00:05:25.608Z,952.93
2023-05-21T00:05:37.843Z,952.92
2023-05-21T00:05:49.598Z,952.92
2023-05-21T00:06:01.641Z,952.93
2023-05-21T00:06:12.655Z,952.94
2023-05-21T00:06:23.603Z,952.94
2023-05-21T00:06:35.651Z,952.95
2023-05-21T00:06:46.585Z,952.95
2023-05-21T00:06:57.583Z,952.96
2023-05-21T00:07:08.592Z,952.96
2023-05-21T00:07:19.583Z,952.96
2023-05-21T00:07:30.581Z,952.97
2023-05-21T00:07:41.576Z,952.97
2023-05-21T00:07:52.584Z,952.97
2023-05-21T00:08:03.590Z,952.96
2023-05-21T00:08:15.594Z,952.96
2023-05-21T00:08:27.589Z,952.96
2023-05-21T00:08:38.576Z,952.96
2023-05-21T00:08:49.580Z,952.96
2023-05-21T00:09:00.572Z,952.96
2023-05-21T00:09:11.572Z,952.95
2023-05-21T00:09:22.569Z,952.94
2023-05-21T00:09:33.554Z,952.93
2023-05-21T00:09:44.541Z,952.92
2023-05-21T00:09:55.549Z,952.91
2023-05-21T00:10:06.541Z,952.90
2023-05-21T00:10:17.531Z,952.90
2023-05-21T00:10:28.533Z,952.90
2023-05-21T00:10:39.535Z,952.90
2023-05-21T00:10:50.542Z,952.90
2023-05-21T00:11:01.532Z,952.90
2023-05-21T00:11:12.520Z,952.91
2023-05-21T00:11:23.631Z,952.91
2023-05-21T00:11:35.582Z,952.92
2023-05-21T00:11:46.561Z,952.91
2023-05-21T00:11:57.568Z,952.91
2023-05-21T00:12:08.570Z,952.90
2023-05-21T00:12:19.554Z,952.90
2023-05-21T00:12:30.536Z,952.89
2023-05-21T00:12:41.530Z,952.89
2023-05-21T00:12:52.553Z,952.88
2023-05-21T00:13:03.566Z,952.87
2023-05-21T00:13:14.578Z,952.87
2023-05-21T00:13:25.574Z,952.86
2023-05-21T00:13:36.577Z,952.86
2023-05-21T00:13:48.559Z,952.86
2023-05-21T00:13:59.573Z,952.86
2023-05-21T00:14:10.555Z,952.86
2023-05-21T00:14:21.546Z,952.86
2023-05-21T00:14:32.551Z,952.86
2023-05-21T00:14:43.533Z,952.86
2023-05-21T00:14:54.531Z,952.86
2023-05-21T00:15:05.543Z,952.86
2023-05-21T00:15:16.556Z,952.87
2023-05-21T00:15:27.570Z,952.87
2023-05-21T00:15:38.572Z,952.88
2023-05-21T00:15:50.548Z,952.89
2023-05-21T00:16:02.582Z,952.89
2023-05-21T00:16:14.606Z,952.89
2023-05-21T00:16:26.689Z,952.89
2023-05-21T00:16:38.574Z,952.89
2023-05-21T00:16:50.647Z,952.89
2023-05-21T00:17:02.599Z,952.89
2023-05-21T00:17:14.578Z,952.89
2023-05-21T00:17:25.567Z,952.89
2023-05-21T00:17:36.614Z,952.89
2023-05-21T00:17:48.585Z,952.90
2023-05-21T00:18:00.625Z,952.90
2023-05-21T00:18:11.686Z,952.89
2023-05-21T00:18:22.579Z,952.89
2023-05-21T00:18:33.571Z,952.89
2023-05-21T00:18:45.586Z,952.88
2023-05-21T00:18:57.675Z,952.88
2023-05-21T00:19:08.623Z,952.88
2023-05-21T00:19:20.620Z,952.87
2023-05-21T00:19:32.640Z,952.87
2023-05-21T00:19:43.557Z,952.86
2023-05-21T00:19:54.563Z,952.87
2023-05-21T00:20:05.628Z,952.87
2023-05-21T00:20:16.555Z,952.86
2023-05-21T00:20:27.556Z,952.86
2023-05-21T00:20:38.539Z,952.85
2023-05-21T00:20:49.536Z,952.84
2023-05-21T00:21:00.528Z,952.84
2023-05-21T00:21:11.614Z,952.82
2023-05-21T00:21:23.565Z,952.81
2023-05-21T00:21:34.568Z,952.80
2023-05-21T00:21:45.568Z,952.79
2023-05-21T00:21:57.591Z,952.79
2023-05-21T00:22:09.578Z,952.79
2023-05-21T00:22:20.567Z,952.79
2023-05-21T00:22:31.564Z,952.80
2023-05-21T00:22:42.739Z,952.80
2023-05-21T00:22:53.546Z,952.79
2023-05-21T00:23:04.557Z,952.79
2023-05-21T00:23:15.547Z,952.80
2023-05-21T00:23:26.534Z,952.80
2023-05-21T00:23:37.551Z,952.81
2023-05-21T00:23:49.549Z,952.81
2023-05-21T00:24:00.558Z,952.81
2023-05-21T00:24:11.556Z,952.81
2023-05-21T00:24:22.556Z,952.82
2023-05-21T00:24:33.551Z,952.81
2023-05-21T00:24:44.545Z,952.81
2023-05-21T00:24:55.531Z,952.80
2023-05-21T00:25:06.539Z,952.79
2023-05-21T00:25:17.542Z,952.79
2023-05-21T00:25:28.541Z,952.79
2023-05-21T00:25:39.555Z,952.79
2023-05-21T00:25:50.557Z,952.79
2023-05-21T00:26:01.565Z,952.78
2023-05-21T00:26:12.559Z,952.77
2023-05-21T00:26:23.562Z,952.77
2023-05-21T00:26:34.558Z,952.77
2023-05-21T00:26:45.548Z,952.77
2023-05-21T00:26:56.537Z,952.77
2023-05-21T00:27:07.544Z,952.78
2023-05-21T00:27:18.538Z,952.78
2023-05-21T00:27:29.525Z,952.77
2023-05-21T00:27:40.554Z,952.77
2023-05-21T00:27:51.558Z,952.77
2023-05-21T00:28:02.534Z,952.77
2023-05-21T00:28:13.533Z,952.77
2023-05-21T00:28:24.531Z,952.77
2023-05-21T00:28:35.537Z,952.77
2023-05-21T00:28:46.524Z,952.76
2023-05-21T00:28:57.553Z,952.76
2023-05-21T00:29:08.547Z,952.75
2023-05-21T00:29:19.570Z,952.76
2023-05-21T00:29:30.568Z,952.76
2023-05-21T00:29:53.578Z,952.76
2023-05-21T00:30:04.578Z,952.76
2023-05-21T00:30:15.578Z,952.76
2023-05-21T00:30:26.580Z,952.76
2023-05-21T00:30:37.585Z,952.76
2023-05-21T00:30:48.593Z,952.76
2023-05-21T00:31:00.540Z,952.76
2023-05-21T00:31:11.539Z,952.76
2023-05-21T00:31:22.553Z,952.76
2023-05-21T00:31:33.627Z,952.77
2023-05-21T00:31:44.620Z,952.77
2023-05-21T00:31:55.552Z,952.77
2023-05-21T00:32:06.641Z,952.77
2023-05-21T00:32:18.608Z,952.76
2023-05-21T00:32:30.592Z,952.76
2023-05-21T00:32:43.290Z,952.76
2023-05-21T00:32:53.564Z,952.75
2023-05-21T00:33:04.580Z,952.74
2023-05-21T00:33:16.560Z,952.74
2023-05-21T00:33:27.558Z,952.74
2023-05-21T00:33:38.568Z,952.73
2023-05-21T00:33:49.580Z,952.73
2023-05-21T00:34:00.581Z,952.73
2023-05-21T00:34:11.574Z,952.74
2023-05-21T00:34:23.564Z,952.74
2023-05-21T00:34:34.560Z,952.73
2023-05-21T00:34:45.560Z,952.73
2023-05-21T00:34:56.567Z,952.72
2023-05-21T00:35:07.537Z,952.71
2023-05-21T00:35:18.621Z,952.71
2023-05-21T00:35:30.603Z,952.70
2023-05-21T00:35:41.595Z,952.70
2023-05-21T00:35:52.607Z,952.70
2023-05-21T00:36:04.560Z,952.70
2023-05-21T00:36:15.621Z,952.70
2023-05-21T00:36:26.533Z,952.70
2023-05-21T00:36:37.529Z,952.70
2023-05-21T00:36:48.547Z,952.70
2023-05-21T00:36:59.549Z,952.70
2023-05-21T00:37:10.556Z,952.69
2023-05-21T00:37:21.551Z,952.68
2023-05-21T00:37:32.543Z,952.68
2023-05-21T00:37:43.543Z,952.67
2023-05-21T00:37:54.538Z,952.66
2023-05-21T00:38:05.543Z,952.66
2023-05-21T00:38:16.548Z,952.66
2023-05-21T00:38:27.557Z,952.66
2023-05-21T00:38:38.550Z,952.66
2023-05-21T00:38:49.562Z,952.66
2023-05-21T00:39:00.571Z,952.66
2023-05-21T00:39:12.560Z,952.66
2023-05-21T00:39:23.559Z,952.66
2023-05-21T00:39:34.564Z,952.66
2023-05-21T00:39:45.563Z,952.65
2023-05-21T00:39:58.253Z,952.65
2023-05-21T00:40:07.569Z,952.64
2023-05-21T00:40:18.561Z,952.64
2023-05-21T00:40:29.549Z,952.63
2023-05-21T00:40:40.542Z,952.62
2023-05-21T00:40:51.549Z,952.62
2023-05-21T00:41:02.558Z,952.62
2023-05-21T00:41:13.589Z,952.62
2023-05-21T00:41:24.559Z,952.61
2023-05-21T00:41:35.564Z,952.61
2023-05-21T00:41:46.560Z,952.61
2023-05-21T00:41:57.564Z,952.61
2023-05-21T00:42:09.569Z,952.61
2023-05-21T00:42:20.568Z,952.60
2023-05-21T00:42:31.558Z,952.60
2023-05-21T00:42:42.577Z,952.59
2023-05-21T00:42:53.581Z,952.58
2023-05-21T00:43:04.596Z,952.59
2023-05-21T00:43:15.652Z,952.59
2023-05-21T00:43:26.605Z,952.59
2023-05-21T00:43:38.578Z,952.59
2023-05-21T00:43:49.571Z,952.58
2023-05-21T00:44:00.579Z,952.58
2023-05-21T00:44:11.568Z,952.57
2023-05-21T00:44:22.556Z,952.57
2023-05-21T00:44:33.564Z,952.58
2023-05-21T00:44:44.565Z,952.58
2023-05-21T00:44:55.576Z,952.58
2023-05-21T00:45:06.582Z,952.57
2023-05-21T00:45:17.597Z,952.57
2023-05-21T00:45:29.635Z,952.56
2023-05-21T00:45:41.578Z,952.56
2023-05-21T00:45:53.562Z,952.56
2023-05-21T00:46:04.628Z,952.56
2023-05-21T00:46:15.592Z,952.56
2023-05-21T00:46:26.676Z,952.57
2023-05-21T00:46:37.584Z,952.57
2023-05-21T00:46:48.570Z,952.56
2023-05-21T00:46:59.571Z,952.56
2023-05-21T00:47:10.559Z,952.55
2023-05-21T00:47:21.586Z,952.55
2023-05-21T00:47:33.570Z,952.55
2023-05-21T00:47:44.574Z,952.55
2023-05-21T00:47:56.640Z,952.55
2023-05-21T00:48:07.651Z,952.55
2023-05-21T00:48:18.587Z,952.55
2023-05-21T00:48:29.579Z,952.55
2023-05-21T00:48:40.588Z,952.55
2023-05-21T00:48:51.580Z,952.55
2023-05-21T00:49:02.587Z,952.56
2023-05-21T00:49:13.582Z,952.57
2023-05-21T00:49:24.643Z,952.58
2023-05-21T00:49:35.554Z,952.59
2023-05-21T00:49:46.536Z,952.60
2023-05-21T00:49:57.565Z,952.59
2023-05-21T00:50:08.554Z,952.59
2023-05-21T00:50:20.569Z,952.59
2023-05-21T00:50:31.563Z,952.59
2023-05-21T00:50:42.568Z,952.58
2023-05-21T00:50:53.553Z,952.58
2023-05-21T00:51:04.565Z,952.57
2023-05-21T00:51:15.560Z,952.58
2023-05-21T00:51:26.551Z,952.58
2023-05-21T00:51:37.553Z,952.58
2023-05-21T00:51:48.557Z,952.58
2023-05-21T00:51:59.563Z,952.57
2023-05-21T00:52:10.553Z,952.57
2023-05-21T00:52:21.561Z,952.57
2023-05-21T00:52:32.570Z,952.57
2023-05-21T00:52:43.548Z,952.56
2023-05-21T00:52:54.553Z,952.56
2023-05-21T00:53:05.559Z,952.56
2023-05-21T00:53:16.541Z,952.56
2023-05-21T00:53:27.576Z,952.55
2023-05-21T00:53:38.568Z,952.56
2023-05-21T00:53:49.556Z,952.56
2023-05-21T00:54:00.553Z,952.56
2023-05-21T00:54:11.532Z,952.57
2023-05-21T00:54:22.622Z,952.57
2023-05-21T00:54:34.596Z,952.57
2023-05-21T00:54:45.583Z,952.57
2023-05-21T00:54:56.586Z,952.57
2023-05-21T00:55:07.571Z,952.57
2023-05-21T00:55:18.580Z,952.56
2023-05-21T00:55:29.593Z,952.56
2023-05-21T00:55:40.581Z,952.55
2023-05-21T00:55:51.589Z,952.55
2023-05-21T00:56:02.586Z,952.55
2023-05-21T00:56:13.596Z,952.55
2023-05-21T00:56:24.589Z,952.55
2023-05-21T00:56:36.574Z,952.55
2023-05-21T00:56:47.574Z,952.54
2023-05-21T00:56:58.585Z,952.54
2023-05-21T00:57:10.555Z,952.54
2023-05-21T00:57:21.577Z,952.54
2023-05-21T00:57:32.576Z,952.54
2023-05-21T00:57:43.554Z,952.54
2023-05-21T00:57:54.534Z,952.54
2023-05-21T00:58:05.618Z,952.54
2023-05-21T00:58:17.588Z,952.54
2023-05-21T00:58:29.573Z,952.54
2023-05-21T00:58:40.560Z,952.54
2023-05-21T00:58:51.581Z,952.54
2023-05-21T00:59:02.564Z,952.54
2023-05-21T00:59:13.556Z,952.53
2023-05-21T00:59:24.561Z,952.53
2023-05-21T00:59:35.542Z,952.52
2023-05-21T00:59:46.539Z,952.52
2023-05-21T00:59:57.538Z,952.53
2023-05-21T01:00:08.528Z,952.53
2023-05-21T01:00:19.619Z,952.53
2023-05-21T01:00:31.592Z,952.52
2023-05-21T01:00:43.570Z,952.52
2023-05-21T01:00:54.656Z,952.50
2023-05-21T01:01:05.604Z,952.49
2023-05-21T01:01:17.592Z,952.49
2023-05-21T01:01:29.613Z,952.49
2023-05-21T01:01:41.712Z,952.49
2023-05-21T01:01:53.577Z,952.48
2023-05-21T01:02:04.597Z,952.48
2023-05-21T01:02:16.589Z,952.47
2023-05-21T01:02:28.652Z,952.48
2023-05-21T01:02:39.627Z,952.48
2023-05-21T01:02:50.712Z,952.48
2023-05-21T01:03:02.598Z,952.47
2023-05-21T01:03:13.822Z,952.47
2023-05-21T01:03:24.620Z,952.47
2023-05-21T01:03:36.576Z,952.46
2023-05-21T01:03:48.819Z,952.46
2023-05-21T01:03:59.540Z,952.47
2023-05-21T01:04:10.546Z,952.46
2023-05-21T01:04:21.548Z,952.45
2023-05-21T01:04:32.532Z,952.45
2023-05-21T01:04:43.622Z,952.45
2023-05-21T01:04:55.610Z,952.45
2023-05-21T01:05:07.580Z,952.45
2023-05-21T01:05:18.641Z,952.45
2023-05-21T01:05:30.650Z,952.45
2023-05-21T01:05:42.600Z,952.45
2023-05-21T01:05:53.585Z,952.45
2023-05-21T01:06:04.568Z,952.45
2023-05-21T01:06:15.559Z,952.45
2023-05-21T01:06:26.565Z,952.46
2023-05-21T01:06:37.560Z,952.46
2023-05-21T01:06:48.552Z,952.46
2023-05-21T01:06:59.552Z,952.46
2023-05-21T01:07:10.552Z,952.46
2023-05-21T01:07:21.543Z,952.46
2023-05-21T01:07:32.622Z,952.46
2023-05-21T01:07:44.590Z,952.46
2023-05-21T01:07:56.556Z,952.46
2023-05-21T01:08:07.577Z,952.46
2023-05-21T01:08:18.580Z,952.46
2023-05-21T01:08:29.561Z,952.47
2023-05-21T01:08:40.549Z,952.47
2023-05-21T01:08:51.596Z,952.48
2023-05-21T01:09:04.405Z,952.48
2023-05-21T01:09:13.544Z,952.47
2023-05-21T01:09:24.539Z,952.47
2023-05-21T01:09:35.533Z,952.46
2023-05-21T01:09:46.536Z,952.45
2023-05-21T01:09:57.561Z,952.44
2023-05-21T01:10:08.569Z,952.44
2023-05-21T01:10:19.619Z,952.43
2023-05-21T01:10:31.599Z,952.43
2023-05-21T01:10:43.559Z,952.43
2023-05-21T01:10:54.557Z,952.43
2023-05-21T01:11:05.569Z,952.43
2023-05-21T01:11:16.564Z,952.43
2023-05-21T01:11:27.562Z,952.43
2023-05-21T01:11:38.568Z,952.42
2023-05-21T01:11:49.565Z,952.42
2023-05-21T01:12:00.585Z,952.42
2023-05-21T01:12:11.583Z,952.41
2023-05-21T01:12:22.578Z,952.41
2023-05-21T01:12:33.567Z,952.41
2023-05-21T01:12:44.563Z,952.41
2023-05-21T01:12:55.561Z,952.40
2023-05-21T01:13:06.561Z,952.40
2023-05-21T01:13:17.560Z,952.38
2023-05-21T01:13:28.598Z,952.38
2023-05-21T01:13:40.570Z,952.38
2023-05-21T01:13:52.555Z,952.38
2023-05-21T01:14:03.573Z,952.38
2023-05-21T01:14:14.582Z,952.38
2023-05-21T01:14:26.561Z,952.38
2023-05-21T01:14:37.609Z,952.38
2023-05-21T01:14:49.581Z,952.38
2023-05-21T01:15:00.591Z,952.37
2023-05-21T01:15:12.581Z,952.37
2023-05-21T01:15:23.581Z,952.37
2023-05-21T01:15:34.858Z,952.36
2023-05-21T01:15:45.533Z,952.36
2023-05-21T01:15:56.617Z,952.36
2023-05-21T01:16:08.585Z,952.37
2023-05-21T01:16:20.594Z,952.38
2023-05-21T01:16:32.623Z,952.38
2023-05-21T01:16:43.575Z,952.38
2023-05-21T01:16:54.544Z,952.38
2023-05-21T01:17:05.647Z,952.38
2023-05-21T01:17:17.575Z,952.38
2023-05-21T01:17:28.599Z,952.38
2023-05-21T01:17:40.606Z,952.38
2023-05-21T01:17:52.664Z,952.38
2023-05-21T01:18:04.588Z,952.37
2023-05-21T01:18:15.648Z,952.37
2023-05-21T01:18:26.589Z,952.37
2023-05-21T01:18:38.748Z,952.37
2023-05-21T01:18:50.656Z,952.37
2023-05-21T01:19:02.633Z,952.37
2023-05-21T01:19:13.615Z,952.36
2023-05-21T01:19:24.607Z,952.36
2023-05-21T01:19:35.663Z,952.36
2023-05-21T01:19:46.615Z,952.36
2023-05-21T01:19:58.610Z,952.36
2023-05-21T01:20:10.588Z,952.36
2023-05-21T01:20:21.577Z,952.36
2023-05-21T01:20:33.553Z,952.36
2023-05-21T01:20:44.536Z,952.36
2023-05-21T01:20:55.553Z,952.36
2023-05-21T01:21:06.532Z,952.36
2023-05-21T01:21:17.615Z,952.36
2023-05-21T01:21:29.569Z,952.36
2023-05-21T01:21:41.597Z,952.36
2023-05-21T01:21:53.559Z,952.35
2023-05-21T01:22:04.585Z,952.35
2023-05-21T01:22:16.556Z,952.35
2023-05-21T01:22:27.560Z,952.35
2023-05-21T01:22:38.549Z,952.36
2023-05-21T01:22:49.589Z,952.35
2023-05-21T01:23:00.574Z,952.35
2023-05-21T01:23:11.568Z,952.35
2023-05-21T01:23:22.600Z,952.35
2023-05-21T01:23:33.587Z,952.35
2023-05-21T01:23:44.570Z,952.35
2023-05-21T01:23:55.563Z,952.35
2023-05-21T01:24:06.579Z,952.35
2023-05-21T01:24:17.575Z,952.35
2023-05-21T01:24:28.560Z,952.35
2023-05-21T01:24:39.566Z,952.35
2023-05-21T01:24:50.545Z,952.36
2023-05-21T01:25:01.541Z,952.36
2023-05-21T01:25:12.543Z,952.36
2023-05-21T01:25:23.533Z,952.36
2023-05-21T01:25:34.692Z,952.36
2023-05-21T01:25:45.611Z,952.36
2023-05-21T01:25:57.556Z,952.36
2023-05-21T01:26:08.595Z,952.36
2023-05-21T01:26:20.566Z,952.36
2023-05-21T01:26:31.553Z,952.36
2023-05-21T01:26:42.547Z,952.37
2023-05-21T01:26:53.547Z,952.37
2023-05-21T01:27:04.530Z,952.37
2023-05-21T01:27:15.523Z,952.38
2023-05-21T01:27:26.601Z,952.38
2023-05-21T01:27:38.576Z,952.37
2023-05-21T01:27:49.562Z,952.37
2023-05-21T01:28:00.698Z,952.37
2023-05-21T01:28:11.569Z,952.37
2023-05-21T01:28:22.571Z,952.36
2023-05-21T01:28:33.565Z,952.37
2023-05-21T01:28:44.585Z,952.37
2023-05-21T01:28:55.572Z,952.37
2023-05-21T01:29:07.559Z,952.37
2023-05-21T01:29:18.541Z,952.37
2023-05-21T01:29:29.522Z,952.36
2023-05-21T01:29:40.608Z,952.36
2023-05-21T01:29:52.568Z,952.35
2023-05-21T01:30:04.568Z,952.35
2023-05-21T01:30:15.564Z,952.35
2023-05-21T01:30:27.549Z,952.34
2023-05-21T01:30:38.535Z,952.34
2023-05-21T01:30:49.532Z,952.34
2023-05-21T01:31:00.610Z,952.33
2023-05-21T01:31:12.600Z,952.33
2023-05-21T01:31:24.577Z,952.33
2023-05-21T01:31:35.569Z,952.33
2023-05-21T01:31:47.554Z,952.32
2023-05-21T01:31:58.541Z,952.32
2023-05-21T01:32:09.536Z,952.32
2023-05-21T01:32:20.537Z,952.32
2023-05-21T01:32:31.545Z,952.32
2023-05-21T01:32:42.694Z,952.32
2023-05-21T01:32:53.640Z,952.31
2023-05-21T01:33:04.648Z,952.31
2023-05-21T01:33:16.599Z,952.31
2023-05-21T01:33:27.641Z,952.30
2023-05-21T01:33:38.682Z,952.30
2023-05-21T01:33:50.606Z,952.30
2023-05-21T01:34:02.674Z,952.30
2023-05-21T01:34:13.584Z,952.30
2023-05-21T01:34:25.591Z,952.30
2023-05-21T01:34:36.583Z,952.30
2023-05-21T01:34:47.580Z,952.29
2023-05-21T01:34:59.571Z,952.29
2023-05-21T01:35:10.570Z,952.29
2023-05-21T01:35:21.574Z,952.29
2023-05-21T01:35:33.679Z,952.28
2023-05-21T01:35:44.619Z,952.28
2023-05-21T01:35:56.578Z,952.27
2023-05-21T01:36:08.596Z,952.27
2023-05-21T01:36:19.580Z,952.28
2023-05-21T01:36:31.585Z,952.28
2023-05-21T01:36:42.582Z,952.28
2023-05-21T01:36:53.580Z,952.28
2023-05-21T01:37:04.586Z,952.28
2023-05-21T01:37:15.595Z,952.28
2023-05-21T01:37:27.596Z,952.27
2023-05-21T01:37:38.580Z,952.27
2023-05-21T01:37:49.554Z,952.27
2023-05-21T01:38:00.541Z,952.26
2023-05-21T01:38:11.532Z,952.27
2023-05-21T01:38:22.552Z,952.27
2023-05-21T01:38:33.560Z,952.26
2023-05-21T01:38:44.540Z,952.26
2023-05-21T01:38:55.535Z,952.26
2023-05-21T01:39:06.551Z,952.26
2023-05-21T01:39:17.556Z,952.26
2023-05-21T01:39:28.553Z,952.27
2023-05-21T01:39:39.553Z,952.26
2023-05-21T01:39:50.567Z,952.26
2023-05-21T01:40:01.580Z,952.25
2023-05-21T01:40:12.575Z,952.24
2023-05-21T01:40:23.581Z,952.25
2023-05-21T01:40:34.593Z,952.24
2023-05-21T01:40:46.557Z,952.23
2023-05-21T01:40:57.547Z,952.23
2023-05-21T01:41:08.537Z,952.23
2023-05-21T01:41:19.533Z,952.23
2023-05-21T01:41:30.530Z,952.23
2023-05-21T01:41:41.531Z,952.23
2023-05-21T01:41:52.531Z,952.23
2023-05-21T01:42:03.624Z,952.22
2023-05-21T01:42:15.564Z,952.23
2023-05-21T01:42:26.559Z,952.23
2023-05-21T01:42:37.546Z,952.23
2023-05-21T01:42:48.538Z,952.23
2023-05-21T01:42:59.550Z,952.23
2023-05-21T01:43:10.548Z,952.23
2023-05-21T01:43:21.557Z,952.23
2023-05-21T01:43:32.567Z,952.23
2023-05-21T01:43:43.574Z,952.23
2023-05-21T01:43:55.556Z,952.23
2023-05-21T01:44:06.537Z,952.24
2023-05-21T01:44:17.538Z,952.24
2023-05-21T01:44:28.552Z,952.25
2023-05-21T01:44:39.561Z,952.26
2023-05-21T01:44:50.557Z,952.26
2023-05-21T01:45:01.568Z,952.26
2023-05-21T01:45:13.560Z,952.26
2023-05-21T01:45:25.556Z,952.27
2023-05-21T01:45:36.757Z,952.27
2023-05-21T01:45:47.575Z,952.27
2023-05-21T01:45:58.600Z,952.27
2023-05-21T01:46:10.611Z,952.27
2023-05-21T01:46:22.622Z,952.27
2023-05-21T01:46:34.644Z,952.27
2023-05-21T01:46:46.686Z,952.26
2023-05-21T01:46:58.592Z,952.27
2023-05-21T01:47:10.566Z,952.27
2023-05-21T01:47:21.569Z,952.27
2023-05-21T01:47:32.615Z,952.27
2023-05-21T01:47:44.654Z,952.27
2023-05-21T01:47:56.662Z,952.27
2023-05-21T01:48:08.551Z,952.27
2023-05-21T01:48:19.619Z,952.27
2023-05-21T01:48:31.577Z,952.26
2023-05-21T01:48:42.574Z,952.26
2023-05-21T01:48:54.599Z,952.26
2023-05-21T01:49:05.570Z,952.27
2023-05-21T01:49:16.568Z,952.27
2023-05-21T01:49:27.558Z,952.27
2023-05-21T01:49:38.555Z,952.27
2023-05-21T01:49:49.553Z,952.27
2023-05-21T01:50:00.539Z,952.27
2023-05-21T01:50:11.541Z,952.27
2023-05-21T01:50:22.625Z,952.27
2023-05-21T01:50:34.597Z,952.28
2023-05-21T01:50:45.601Z,952.28
2023-05-21T01:50:57.561Z,952.28
2023-05-21T01:51:08.587Z,952.28
2023-05-21T01:51:20.576Z,952.28
2023-05-21T01:51:31.569Z,952.28
2023-05-21T01:51:42.555Z,952.28
2023-05-21T01:51:53.542Z,952.28
2023-05-21T01:52:04.627Z,952.28
2023-05-21T01:52:16.594Z,952.29
2023-05-21T01:52:28.575Z,952.29
2023-05-21T01:52:39.560Z,952.29
2023-05-21T01:52:50.556Z,952.29
2023-05-21T01:53:01.587Z,952.29
2023-05-21T01:53:12.580Z,952.29
2023-05-21T01:53:23.581Z,952.28
2023-05-21T01:53:34.585Z,952.28
2023-05-21T01:53:45.598Z,952.28
2023-05-21T01:53:56.574Z,952.28
2023-05-21T01:54:07.554Z,952.28
2023-05-21T01:54:18.546Z,952.27
2023-05-21T01:54:29.555Z,952.27
2023-05-21T01:54:40.545Z,952.27
2023-05-21T01:54:51.545Z,952.27
2023-05-21T01:55:02.534Z,952.27
2023-05-21T01:55:13.636Z,952.27
2023-05-21T01:55:25.618Z,952.27
2023-05-21T01:55:37.852Z,952.27
2023-05-21T01:55:48.560Z,952.27
2023-05-21T01:55:59.551Z,952.27
2023-05-21T01:56:10.552Z,952.27
2023-05-21T01:56:21.589Z,952.27
2023-05-21T01:56:32.588Z,952.28
2023-05-21T01:56:43.608Z,952.28
2023-05-21T01:56:55.567Z,952.27
2023-05-21T01:57:06.560Z,952.28
2023-05-21T01:57:17.570Z,952.28
2023-05-21T01:57:28.570Z,952.28
2023-05-21T01:57:39.558Z,952.28
2023-05-21T01:57:50.534Z,952.28
2023-05-21T01:58:02.642Z,952.28
2023-05-21T01:58:13.559Z,952.28
2023-05-21T01:58:24.547Z,952.28
2023-05-21T01:58:35.554Z,952.28
2023-05-21T01:58:46.576Z,952.28
2023-05-21T01:58:57.555Z,952.28
2023-05-21T01:59:08.541Z,952.28
2023-05-21T01:59:19.533Z,952.28
2023-05-21T01:59:30.561Z,952.27
2023-05-21T01:59:41.555Z,952.27
2023-05-21T01:59:52.556Z,952.27
2023-05-21T02:00:03.572Z,952.27
2023-05-21T02:00:14.569Z,952.27
2023-05-21T02:00:25.589Z,952.26
2023-05-21T02:00:36.573Z,952.26
2023-05-21T02:00:47.584Z,952.26
2023-05-21T02:00:58.573Z,952.26
2023-05-21T02:01:09.570Z,952.26
2023-05-21T02:01:20.575Z,952.27
2023-05-21T02:01:31.613Z,952.27
2023-05-21T02:01:43.601Z,952.27
2023-05-21T02:01:55.638Z,952.26
2023-05-21T02:02:06.643Z,952.26
2023-05-21T02:02:18.583Z,952.26
2023-05-21T02:02:29.626Z,952.26
2023-05-21T02:02:40.650Z,952.27
2023-05-21T02:02:52.749Z,952.27
2023-05-21T02:03:04.647Z,952.27
2023-05-21T02:03:16.752Z,952.27
2023-05-21T02:03:27.691Z,952.28
2023-05-21T02:03:38.672Z,952.27
2023-05-21T02:03:49.662Z,952.26
2023-05-21T02:04:01.649Z,952.25
2023-05-21T02:04:12.708Z,952.24
2023-05-21T02:04:24.588Z,952.25
2023-05-21T02:04:35.579Z,952.25
2023-05-21T02:04:47.581Z,952.26
2023-05-21T02:04:58.580Z,952.26
2023-05-21T02:05:09.576Z,952.25
2023-05-21T02:05:20.566Z,952.25
2023-05-21T02:05:31.572Z,952.24
2023-05-21T02:05:42.567Z,952.24
2023-05-21T02:05:53.560Z,952.25
2023-05-21T02:06:04.553Z,952.25
2023-05-21T02:06:15.567Z,952.24
2023-05-21T02:06:26.568Z,952.25
2023-05-21T02:06:37.552Z,952.25
2023-05-21T02:06:48.567Z,952.25
2023-05-21T02:06:59.572Z,952.26
2023-05-21T02:07:10.588Z,952.26
2023-05-21T02:07:21.593Z,952.26
2023-05-21T02:07:32.583Z,952.26
2023-05-21T02:07:44.570Z,952.25
2023-05-21T02:07:55.570Z,952.25
2023-05-21T02:08:06.564Z,952.24
2023-05-21T02:08:18.567Z,952.24
2023-05-21T02:08:29.564Z,952.23
2023-05-21T02:08:40.552Z,952.23
2023-05-21T02:08:51.573Z,952.23
2023-05-21T02:09:02.573Z,952.23
2023-05-21T02:09:13.532Z,952.22
2023-05-21T02:09:24.623Z,952.22
2023-05-21T02:09:36.579Z,952.22
2023-05-21T02:09:47.574Z,952.22
2023-05-21T02:09:58.587Z,952.22
2023-05-21T02:10:09.575Z,952.22
2023-05-21T02:10:20.572Z,952.22
2023-05-21T02:10:31.560Z,952.22
2023-05-21T02:10:42.568Z,952.22
2023-05-21T02:10:53.569Z,952.22
2023-05-21T02:11:04.567Z,952.22
2023-05-21T02:11:15.614Z,952.22
2023-05-21T02:11:27.559Z,952.21
2023-05-21T02:11:38.583Z,952.21
2023-05-21T02:11:49.592Z,952.20
2023-05-21T02:12:00.595Z,952.20
2023-05-21T02:12:11.592Z,952.20
2023-05-21T02:12:22.577Z,952.19
2023-05-21T02:12:33.569Z,952.19
2023-05-21T02:12:44.576Z,952.19
2023-05-21T02:12:55.567Z,952.18
2023-05-21T02:13:06.584Z,952.18
2023-05-21T02:13:17.573Z,952.18
2023-05-21T02:13:28.587Z,952.17
2023-05-21T02:13:39.572Z,952.18
2023-05-21T02:13:50.575Z,952.17
2023-05-21T02:14:01.579Z,952.16
2023-05-21T02:14:12.580Z,952.17
2023-05-21T02:14:23.589Z,952.16
2023-05-21T02:14:34.579Z,952.16
2023-05-21T02:14:45.577Z,952.16
2023-05-21T02:14:56.577Z,952.16
2023-05-21T02:15:08.562Z,952.15
2023-05-21T02:15:19.564Z,952.15
2023-05-21T02:15:30.607Z,952.16
2023-05-21T02:15:42.563Z,952.16
2023-05-21T02:15:53.594Z,952.16
2023-05-21T02:16:04.624Z,952.15
2023-05-21T02:16:16.639Z,952.15
2023-05-21T02:16:27.613Z,952.15
2023-05-21T02:16:38.728Z,952.15
2023-05-21T02:16:49.562Z,952.15
2023-05-21T02:17:00.551Z,952.15
2023-05-21T02:17:11.553Z,952.15
2023-05-21T02:17:22.536Z,952.15
2023-05-21T02:17:33.554Z,952.15
2023-05-21T02:17:44.648Z,952.15
2023-05-21T02:17:56.581Z,952.14
2023-05-21T02:18:07.680Z,952.13
2023-05-21T02:18:19.581Z,952.13
2023-05-21T02:18:31.563Z,952.13
2023-05-21T02:18:42.581Z,952.13
2023-05-21T02:18:54.594Z,952.13
2023-05-21T02:19:06.679Z,952.13
2023-05-21T02:19:18.660Z,952.13
2023-05-21T02:19:29.660Z,952.13
2023-05-21T02:19:41.608Z,952.12
2023-05-21T02:19:53.607Z,952.12
2023-05-21T02:20:05.562Z,952.12